sensor_id;sensor_type;location;lat;lon;timestamp;pressure;altitude;pressure_sealevel;temperature;humidity
41712;BME280;27399;51.516;13.670;2023-04-27T00:00:05;100764.00;;;6.80;76.14
41712;BME280;27399;51.516;13.670;2023-04-27T00:02:35;100761.06;;;6.62;76.58
41712;BME280;27399;51.516;13.670;2023-04-27T00:05:01;100759.38;;;6.67;77.04
41712;BME280;27399;51.516;13.670;2023-04-27T00:07:27;100755.72;;;6.57;77.04
41712;BME280;27399;51.516;13.670;2023-04-27T00:09:53;100764.53;;;6.55;77.36
41712;BME280;27399;51.516;13.670;2023-04-27T00:12:19;100762.63;;;6.43;77.55
41712;BME280;27399;51.516;13.670;2023-04-27T00:14:44;100757.44;;;6.52;77.40
41712;BME280;27399;51.516;13.670;2023-04-27T00:17:10;100758.28;;;6.49;77.03
41712;BME280;27399;51.516;13.670;2023-04-27T00:19:36;100759.13;;;6.47;76.94
41712;BME280;27399;51.516;13.670;2023-04-27T00:22:02;100756.25;;;6.31;77.48
41712;BME280;27399;51.516;13.670;2023-04-27T00:24:27;100755.22;;;6.20;77.28
41712;BME280;27399;51.516;13.670;2023-04-27T00:26:53;100750.22;;;6.42;77.43
41712;BME280;27399;51.516;13.670;2023-04-27T00:29:18;100755.22;;;6.20;76.93
41712;BME280;27399;51.516;13.670;2023-04-27T00:31:44;100755.34;;;6.31;77.01
41712;BME280;27399;51.516;13.670;2023-04-27T00:34:10;100759.66;;;6.21;76.98
41712;BME280;27399;51.516;13.670;2023-04-27T00:36:35;100758.75;;;6.20;76.89
41712;BME280;27399;51.516;13.670;2023-04-27T00:39:02;100756.88;;;6.13;76.25
41712;BME280;27399;51.516;13.670;2023-04-27T00:41:28;100757.13;;;6.32;75.96
41712;BME280;27399;51.516;13.670;2023-04-27T00:43:53;100758.00;;;6.29;75.92
41712;BME280;27399;51.516;13.670;2023-04-27T00:46:19;100763.97;;;6.16;76.12
41712;BME280;27399;51.516;13.670;2023-04-27T00:48:45;100756.09;;;6.19;76.18
41712;BME280;27399;51.516;13.670;2023-04-27T00:51:12;100762.09;;;6.09;76.74
41712;BME280;27399;51.516;13.670;2023-04-27T00:53:38;100756.75;;;6.04;77.02
41712;BME280;27399;51.516;13.670;2023-04-27T00:56:04;100757.38;;;5.89;77.13
41712;BME280;27399;51.516;13.670;2023-04-27T00:58:30;100763.50;;;5.86;77.35
41712;BME280;27399;51.516;13.670;2023-04-27T01:00:57;100758.22;;;5.88;77.17
41712;BME280;27399;51.516;13.670;2023-04-27T01:03:23;100763.44;;;5.82;77.08
41712;BME280;27399;51.516;13.670;2023-04-27T01:05:49;100764.47;;;5.93;77.00
41712;BME280;27399;51.516;13.670;2023-04-27T01:08:14;100763.38;;;5.79;77.21
41712;BME280;27399;51.516;13.670;2023-04-27T01:10:40;100757.22;;;5.81;77.38
41712;BME280;27399;51.516;13.670;2023-04-27T01:13:06;100770.19;;;5.64;77.42
41712;BME280;27399;51.516;13.670;2023-04-27T01:15:31;100769.38;;;5.68;77.64
41712;BME280;27399;51.516;13.670;2023-04-27T01:17:58;100773.66;;;5.62;77.62
41712;BME280;27399;51.516;13.670;2023-04-27T01:20:24;100778.06;;;5.61;77.70
41712;BME280;27399;51.516;13.670;2023-04-27T01:22:55;100762.09;;;5.55;77.44
41712;BME280;27399;51.516;13.670;2023-04-27T01:25:21;100779.19;;;5.25;78.18
41712;BME280;27399;51.516;13.670;2023-04-27T01:27:47;100778.00;;;5.10;78.94
41712;BME280;27399;51.516;13.670;2023-04-27T01:30:13;100767.56;;;5.17;79.02
41712;BME280;27399;51.516;13.670;2023-04-27T01:32:38;100774.75;;;5.24;78.75
41712;BME280;27399;51.516;13.670;2023-04-27T01:35:05;100778.59;;;5.41;78.11
41712;BME280;27399;51.516;13.670;2023-04-27T01:37:31;100775.88;;;5.37;78.22
41712;BME280;27399;51.516;13.670;2023-04-27T01:39:57;100781.41;;;5.51;78.21
41712;BME280;27399;51.516;13.670;2023-04-27T01:42:22;100781.31;;;5.45;77.91
41712;BME280;27399;51.516;13.670;2023-04-27T01:44:48;100781.53;;;5.58;77.78
41712;BME280;27399;51.516;13.670;2023-04-27T01:47:14;100790.84;;;5.36;77.60
41712;BME280;27399;51.516;13.670;2023-04-27T01:49:41;100793.69;;;5.47;76.91
41712;BME280;27399;51.516;13.670;2023-04-27T01:52:07;100792.56;;;5.34;77.13
41712;BME280;27399;51.516;13.670;2023-04-27T01:54:33;100797.78;;;5.31;77.49
41712;BME280;27399;51.516;13.670;2023-04-27T01:56:58;100799.47;;;5.26;77.38
41712;BME280;27399;51.516;13.670;2023-04-27T01:59:26;100800.84;;;5.05;77.66
41712;BME280;27399;51.516;13.670;2023-04-27T02:01:52;100797.59;;;5.20;77.90
41712;BME280;27399;51.516;13.670;2023-04-27T02:04:18;100797.56;;;5.19;77.50
41712;BME280;27399;51.516;13.670;2023-04-27T02:06:44;100798.56;;;5.25;77.53
41712;BME280;27399;51.516;13.670;2023-04-27T02:09:09;100793.34;;;5.28;77.76
41712;BME280;27399;51.516;13.670;2023-04-27T02:11:35;100797.78;;;5.31;77.95
41712;BME280;27399;51.516;13.670;2023-04-27T02:14:01;100800.34;;;5.26;77.96
41712;BME280;27399;51.516;13.670;2023-04-27T02:16:26;100805.47;;;5.17;78.33
41712;BME280;27399;51.516;13.670;2023-04-27T02:18:52;100804.59;;;5.17;78.55
41712;BME280;27399;51.516;13.670;2023-04-27T02:21:18;100806.25;;;5.11;78.63
41712;BME280;27399;51.516;13.670;2023-04-27T02:23:44;100808.13;;;5.17;78.79
41712;BME280;27399;51.516;13.670;2023-04-27T02:26:17;100808.81;;;5.08;78.55
41712;BME280;27399;51.516;13.670;2023-04-27T02:28:44;100804.34;;;5.04;78.58
41712;BME280;27399;51.516;13.670;2023-04-27T02:31:10;100810.75;;;5.17;78.83
41712;BME280;27399;51.516;13.670;2023-04-27T02:33:36;100811.59;;;5.15;79.13
41712;BME280;27399;51.516;13.670;2023-04-27T02:36:02;100815.00;;;5.07;78.69
41712;BME280;27399;51.516;13.670;2023-04-27T02:38:30;100808.84;;;5.10;78.54
41712;BME280;27399;51.516;13.670;2023-04-27T02:40:56;100808.63;;;4.99;78.93
41712;BME280;27399;51.516;13.670;2023-04-27T02:43:22;100807.94;;;5.09;78.81
41712;BME280;27399;51.516;13.670;2023-04-27T02:45:47;100813.38;;;5.16;78.90
41712;BME280;27399;51.516;13.670;2023-04-27T02:48:13;100810.66;;;5.11;79.08
41712;BME280;27399;51.516;13.670;2023-04-27T02:50:42;100809.66;;;5.06;79.52
41712;BME280;27399;51.516;13.670;2023-04-27T02:53:09;100801.69;;;5.04;78.88
41712;BME280;27399;51.516;13.670;2023-04-27T02:55:35;100811.16;;;4.93;79.29
41712;BME280;27399;51.516;13.670;2023-04-27T02:58:00;100810.38;;;4.97;79.00
41712;BME280;27399;51.516;13.670;2023-04-27T03:00:26;100807.84;;;5.03;78.96
41712;BME280;27399;51.516;13.670;2023-04-27T03:02:52;100811.16;;;4.93;79.28
41712;BME280;27399;51.516;13.670;2023-04-27T03:05:17;100804.94;;;4.91;79.11
41712;BME280;27399;51.516;13.670;2023-04-27T03:07:43;100812.22;;;5.03;78.85
41712;BME280;27399;51.516;13.670;2023-04-27T03:10:09;100817.38;;;4.95;78.99
41712;BME280;27399;51.516;13.670;2023-04-27T03:12:35;100821.16;;;5.08;79.09
41712;BME280;27399;51.516;13.670;2023-04-27T03:15:00;100825.78;;;4.75;79.55
41712;BME280;27399;51.516;13.670;2023-04-27T03:17:26;100821.81;;;4.96;79.59
41712;BME280;27399;51.516;13.670;2023-04-27T03:19:52;100828.88;;;4.97;79.70
41712;BME280;27399;51.516;13.670;2023-04-27T03:22:18;100837.50;;;4.88;79.36
41712;BME280;27399;51.516;13.670;2023-04-27T03:24:44;100835.91;;;4.98;79.57
41712;BME280;27399;51.516;13.670;2023-04-27T03:27:10;100833.19;;;4.93;79.25
41712;BME280;27399;51.516;13.670;2023-04-27T03:29:35;100808.34;;;4.85;79.28
41712;BME280;27399;51.516;13.670;2023-04-27T03:32:02;100835.91;;;4.98;79.88
41712;BME280;27399;51.516;13.670;2023-04-27T03:34:29;100836.94;;;5.05;79.24
41712;BME280;27399;51.516;13.670;2023-04-27T03:36:55;100840.53;;;5.08;79.23
41712;BME280;27399;51.516;13.670;2023-04-27T03:39:21;100839.47;;;4.99;79.36
41712;BME280;27399;51.516;13.670;2023-04-27T03:41:47;100842.50;;;5.19;79.22
41712;BME280;27399;51.516;13.670;2023-04-27T03:44:12;100846.03;;;5.18;79.11
41712;BME280;27399;51.516;13.670;2023-04-27T03:46:38;100854.66;;;5.07;79.29
41712;BME280;27399;51.516;13.670;2023-04-27T03:49:04;100857.50;;;5.20;79.24
41712;BME280;27399;51.516;13.670;2023-04-27T03:51:30;100857.34;;;5.10;78.62
41712;BME280;27399;51.516;13.670;2023-04-27T03:53:59;100857.59;;;5.23;78.65
41712;BME280;27399;51.516;13.670;2023-04-27T03:56:24;100868.09;;;5.20;78.93
41712;BME280;27399;51.516;13.670;2023-04-27T03:58:50;100860.88;;;5.11;78.19
41712;BME280;27399;51.516;13.670;2023-04-27T04:01:16;100862.13;;;5.30;78.62
41712;BME280;27399;51.516;13.670;2023-04-27T04:03:43;100868.44;;;5.37;79.02
41712;BME280;27399;51.516;13.670;2023-04-27T04:06:09;100867.97;;;5.14;79.54
41712;BME280;27399;51.516;13.670;2023-04-27T04:08:35;100850.94;;;5.43;78.76
41712;BME280;27399;51.516;13.670;2023-04-27T04:11:01;100869.53;;;5.47;78.62
41712;BME280;27399;51.516;13.670;2023-04-27T04:13:28;100875.09;;;5.61;78.09
41712;BME280;27399;51.516;13.670;2023-04-27T04:16:07;100880.34;;;5.59;78.62
41712;BME280;27399;51.516;13.670;2023-04-27T04:18:34;100868.31;;;5.77;76.32
41712;BME280;27399;51.516;13.670;2023-04-27T04:21:00;100857.84;;;5.83;75.15
41712;BME280;27399;51.516;13.670;2023-04-27T04:23:26;100882.91;;;6.02;75.26
41712;BME280;27399;51.516;13.670;2023-04-27T04:25:53;100877.75;;;6.08;73.98
41712;BME280;27399;51.516;13.670;2023-04-27T04:28:21;100883.28;;;6.22;73.72
41712;BME280;27399;51.516;13.670;2023-04-27T04:30:47;100888.50;;;6.17;73.14
41712;BME280;27399;51.516;13.670;2023-04-27T04:33:13;100889.78;;;6.43;73.61
41712;BME280;27399;51.516;13.670;2023-04-27T04:35:39;100894.94;;;6.33;73.78
41712;BME280;27399;51.516;13.670;2023-04-27T04:38:06;100887.41;;;6.61;73.79
41712;BME280;27399;51.516;13.670;2023-04-27T04:40:33;100891.72;;;6.53;72.55
41712;BME280;27399;51.516;13.670;2023-04-27T04:42:58;100895.63;;;6.77;72.26
41712;BME280;27399;51.516;13.670;2023-04-27T04:45:24;100895.56;;;6.75;71.34
41712;BME280;27399;51.516;13.670;2023-04-27T04:47:51;100898.28;;;6.77;71.20
41712;BME280;27399;51.516;13.670;2023-04-27T04:50:18;100909.94;;;6.91;72.33
41712;BME280;27399;51.516;13.670;2023-04-27T04:52:44;100911.78;;;6.95;70.88
41712;BME280;27399;51.516;13.670;2023-04-27T04:55:10;100913.47;;;6.90;70.34
41712;BME280;27399;51.516;13.670;2023-04-27T04:57:36;100911.06;;;7.07;70.91
41712;BME280;27399;51.516;13.670;2023-04-27T05:00:03;100911.06;;;7.07;71.67
41712;BME280;27399;51.516;13.670;2023-04-27T05:02:36;100914.63;;;7.09;71.73
41712;BME280;27399;51.516;13.670;2023-04-27T05:05:02;100915.50;;;7.10;72.64
41712;BME280;27399;51.516;13.670;2023-04-27T05:07:28;100913.88;;;7.21;70.63
41712;BME280;27399;51.516;13.670;2023-04-27T05:09:54;100912.16;;;7.25;70.04
41712;BME280;27399;51.516;13.670;2023-04-27T05:12:20;100908.69;;;7.31;69.98
41712;BME280;27399;51.516;13.670;2023-04-27T05:14:45;100919.25;;;7.24;71.02
41712;BME280;27399;51.516;13.670;2023-04-27T05:17:12;100911.34;;;7.31;70.61
41712;BME280;27399;51.516;13.670;2023-04-27T05:19:38;100915.00;;;7.39;70.73
41712;BME280;27399;51.516;13.670;2023-04-27T05:22:04;100922.97;;;7.39;69.79
41712;BME280;27399;51.516;13.670;2023-04-27T05:24:30;100921.28;;;7.46;69.53
41712;BME280;27399;51.516;13.670;2023-04-27T05:26:55;100921.34;;;7.50;68.43
41712;BME280;27399;51.516;13.670;2023-04-27T05:29:21;100917.69;;;7.42;69.66
41712;BME280;27399;51.516;13.670;2023-04-27T05:31:47;100907.16;;;7.48;70.38
41712;BME280;27399;51.516;13.670;2023-04-27T05:34:13;100915.38;;;7.70;70.08
41712;BME280;27399;51.516;13.670;2023-04-27T05:36:38;100919.91;;;7.80;69.82
41712;BME280;27399;51.516;13.670;2023-04-27T05:39:04;100914.56;;;7.75;68.77
41712;BME280;27399;51.516;13.670;2023-04-27T05:41:30;100912.81;;;7.79;69.77
41712;BME280;27399;51.516;13.670;2023-04-27T05:43:56;100914.59;;;7.82;68.74
41712;BME280;27399;51.516;13.670;2023-04-27T05:46:21;100915.47;;;7.78;70.16
41712;BME280;27399;51.516;13.670;2023-04-27T05:48:47;100906.72;;;7.88;70.16
41712;BME280;27399;51.516;13.670;2023-04-27T05:51:13;100910.47;;;8.09;69.27
41712;BME280;27399;51.516;13.670;2023-04-27T05:53:38;100924.53;;;7.98;68.49
41712;BME280;27399;51.516;13.670;2023-04-27T05:56:04;100905.03;;;7.96;68.04
41712;BME280;27399;51.516;13.670;2023-04-27T05:58:33;100920.13;;;8.03;69.58
41712;BME280;27399;51.516;13.670;2023-04-27T06:01:02;100914.88;;;8.08;68.06
41712;BME280;27399;51.516;13.670;2023-04-27T06:03:29;100906.06;;;8.14;67.93
41712;BME280;27399;51.516;13.670;2023-04-27T06:05:56;100910.69;;;8.36;67.59
41712;BME280;27399;51.516;13.670;2023-04-27T06:08:22;100909.88;;;8.42;68.40
41712;BME280;27399;51.516;13.670;2023-04-27T06:10:49;100908.03;;;8.35;67.72
41712;BME280;27399;51.516;13.670;2023-04-27T06:13:16;100918.75;;;8.44;67.90
41712;BME280;27399;51.516;13.670;2023-04-27T06:15:41;100924.16;;;8.53;68.38
41712;BME280;27399;51.516;13.670;2023-04-27T06:18:07;100924.13;;;8.50;67.21
41712;BME280;27399;51.516;13.670;2023-04-27T06:20:33;100922.34;;;8.48;68.15
41712;BME280;27399;51.516;13.670;2023-04-27T06:22:59;100922.41;;;8.57;67.80
41712;BME280;27399;51.516;13.670;2023-04-27T06:25:25;100924.13;;;8.50;66.83
41712;BME280;27399;51.516;13.670;2023-04-27T06:27:56;100927.66;;;8.49;66.50
41712;BME280;27399;51.516;13.670;2023-04-27T06:30:25;100900.31;;;8.64;66.09
41712;BME280;27399;51.516;13.670;2023-04-27T06:32:51;100922.50;;;8.71;65.82
41712;BME280;27399;51.516;13.670;2023-04-27T06:35:16;100927.84;;;8.71;66.01
41712;BME280;27399;51.516;13.670;2023-04-27T06:37:42;100935.72;;;8.59;66.29
41712;BME280;27399;51.516;13.670;2023-04-27T06:40:09;100934.13;;;8.82;65.54
41712;BME280;27399;51.516;13.670;2023-04-27T06:42:35;100930.59;;;8.82;66.27
41712;BME280;27399;51.516;13.670;2023-04-27T06:45:01;100933.88;;;8.53;66.53
41712;BME280;27399;51.516;13.670;2023-04-27T06:47:28;100929.72;;;8.84;66.04
41712;BME280;27399;51.516;13.670;2023-04-27T06:49:54;100930.53;;;8.76;65.84
41712;BME280;27399;51.516;13.670;2023-04-27T06:52:19;100931.56;;;8.98;66.76
41712;BME280;27399;51.516;13.670;2023-04-27T06:54:45;100935.09;;;9.00;65.83
41712;BME280;27399;51.516;13.670;2023-04-27T06:57:11;100936.91;;;8.99;66.86
41712;BME280;27399;51.516;13.670;2023-04-27T06:59:36;100941.25;;;8.90;66.74
41712;BME280;27399;51.516;13.670;2023-04-27T07:02:02;100943.19;;;9.14;66.77
41712;BME280;27399;51.516;13.670;2023-04-27T07:04:28;100937.88;;;9.14;66.90
41712;BME280;27399;51.516;13.670;2023-04-27T07:06:57;100939.72;;;9.24;66.78
41712;BME280;27399;51.516;13.670;2023-04-27T07:09:22;100935.22;;;9.22;66.64
41712;BME280;27399;51.516;13.670;2023-04-27T07:11:48;100942.41;;;9.34;66.07
41712;BME280;27399;51.516;13.670;2023-04-27T07:14:14;100935.31;;;9.31;66.32
41712;BME280;27399;51.516;13.670;2023-04-27T07:16:39;100932.69;;;9.42;66.17
41712;BME280;27399;51.516;13.670;2023-04-27T07:19:05;100931.88;;;9.60;66.10
41712;BME280;27399;51.516;13.670;2023-04-27T07:21:31;100937.19;;;9.55;66.82
41712;BME280;27399;51.516;13.670;2023-04-27T07:23:57;100937.25;;;9.79;65.94
41712;BME280;27399;51.516;13.670;2023-04-27T07:26:23;100942.47;;;9.46;66.46
41712;BME280;27399;51.516;13.670;2023-04-27T07:28:49;100937.25;;;9.80;65.38
41712;BME280;27399;51.516;13.670;2023-04-27T07:31:15;100926.59;;;9.68;64.49
41712;BME280;27399;51.516;13.670;2023-04-27T07:33:40;100938.19;;;9.88;64.92
41712;BME280;27399;51.516;13.670;2023-04-27T07:36:08;100929.31;;;9.91;64.36
41712;BME280;27399;51.516;13.670;2023-04-27T07:38:34;100930.19;;;9.93;64.04
41712;BME280;27399;51.516;13.670;2023-04-27T07:41:00;100945.28;;;9.92;63.85
41712;BME280;27399;51.516;13.670;2023-04-27T07:43:27;100951.53;;;10.08;63.96
41712;BME280;27399;51.516;13.670;2023-04-27T07:45:53;100942.66;;;10.03;63.55
41712;BME280;27399;51.516;13.670;2023-04-27T07:48:20;100948.00;;;10.19;63.57
41712;BME280;27399;51.516;13.670;2023-04-27T07:50:46;100961.34;;;10.30;63.81
41712;BME280;27399;51.516;13.670;2023-04-27T07:53:12;100955.13;;;10.20;62.67
41712;BME280;27399;51.516;13.670;2023-04-27T07:55:38;100955.16;;;10.38;63.14
41712;BME280;27399;51.516;13.670;2023-04-27T07:58:04;100953.34;;;10.31;62.02
41712;BME280;27399;51.516;13.670;2023-04-27T08:00:30;100959.63;;;10.38;62.12
41712;BME280;27399;51.516;13.670;2023-04-27T08:02:55;100953.41;;;10.47;62.97
41712;BME280;27399;51.516;13.670;2023-04-27T08:05:21;100957.84;;;10.60;62.66
41712;BME280;27399;51.516;13.670;2023-04-27T08:07:47;100964.94;;;10.57;62.80
41712;BME280;27399;51.516;13.670;2023-04-27T08:10:14;100942.75;;;10.61;61.68
41712;BME280;27399;51.516;13.670;2023-04-27T08:12:40;100962.28;;;10.84;61.65
41712;BME280;27399;51.516;13.670;2023-04-27T08:15:06;100941.81;;;10.80;61.44
41712;BME280;27399;51.516;13.670;2023-04-27T08:17:32;100948.06;;;10.61;61.73
41712;BME280;27399;51.516;13.670;2023-04-27T08:19:58;100946.25;;;10.97;61.65
41712;BME280;27399;51.516;13.670;2023-04-27T08:22:23;100947.16;;;10.82;62.25
41712;BME280;27399;51.516;13.670;2023-04-27T08:24:49;100956.94;;;10.61;60.56
41712;BME280;27399;51.516;13.670;2023-04-27T08:27:15;100948.06;;;10.72;61.04
41712;BME280;27399;51.516;13.670;2023-04-27T08:29:44;100949.81;;;11.02;61.41
41712;BME280;27399;51.516;13.670;2023-04-27T08:32:11;100942.69;;;10.93;62.81
41712;BME280;27399;51.516;13.670;2023-04-27T08:34:37;100946.25;;;10.98;61.06
41712;BME280;27399;51.516;13.670;2023-04-27T08:37:03;100937.34;;;10.96;60.89
41712;BME280;27399;51.516;13.670;2023-04-27T08:39:28;100942.69;;;11.06;61.96
41712;BME280;27399;51.516;13.670;2023-04-27T08:41:57;100944.47;;;11.07;62.66
41712;BME280;27399;51.516;13.670;2023-04-27T08:44:23;100947.13;;;11.11;60.75
41712;BME280;27399;51.516;13.670;2023-04-27T08:46:49;100953.31;;;11.23;62.09
41712;BME280;27399;51.516;13.670;2023-04-27T08:49:15;100948.88;;;11.25;62.56
41712;BME280;27399;51.516;13.670;2023-04-27T08:51:41;100948.88;;;11.25;63.43
41712;BME280;27399;51.516;13.670;2023-04-27T08:54:07;100946.19;;;11.23;61.03
41712;BME280;27399;51.516;13.670;2023-04-27T08:56:33;100950.66;;;11.21;61.51
41712;BME280;27399;51.516;13.670;2023-04-27T08:58:59;100949.78;;;11.07;59.04
41712;BME280;27399;51.516;13.670;2023-04-27T09:01:25;100947.09;;;11.21;59.90
41712;BME280;27399;51.516;13.670;2023-04-27T09:03:56;100942.66;;;11.18;60.07
41712;BME280;27399;51.516;13.670;2023-04-27T09:06:32;100950.63;;;11.16;60.01
41712;BME280;27399;51.516;13.670;2023-04-27T09:08:58;100954.22;;;11.20;59.98
41712;BME280;27399;51.516;13.670;2023-04-27T09:11:35;100944.41;;;11.24;59.35
41712;BME280;27399;51.516;13.670;2023-04-27T09:14:15;100950.63;;;11.29;60.00
41712;BME280;27399;51.516;13.670;2023-04-27T09:16:41;100948.88;;;11.17;60.12
41712;BME280;27399;51.516;13.670;2023-04-27T09:19:08;100944.44;;;11.19;59.89
41712;BME280;27399;51.516;13.670;2023-04-27T09:21:33;100948.81;;;11.32;59.92
41712;BME280;27399;51.516;13.670;2023-04-27T09:24:09;100947.03;;;11.39;60.63
41712;BME280;27399;51.516;13.670;2023-04-27T09:26:37;100953.22;;;11.49;60.21
41712;BME280;27399;51.516;13.670;2023-04-27T09:29:02;100940.72;;;11.54;60.53
41712;BME280;27399;51.516;13.670;2023-04-27T09:31:32;100931.84;;;11.51;59.14
41712;BME280;27399;51.516;13.670;2023-04-27T09:33:58;100937.13;;;11.66;59.71
41712;BME280;27399;51.516;13.670;2023-04-27T09:36:24;100936.22;;;11.66;58.71
41712;BME280;27399;51.516;13.670;2023-04-27T09:38:51;100936.94;;;12.06;59.09
41712;BME280;27399;51.516;13.670;2023-04-27T09:41:17;100927.06;;;12.15;58.17
41712;BME280;27399;51.516;13.670;2023-04-27T09:43:44;100933.28;;;12.18;57.94
41712;BME280;27399;51.516;13.670;2023-04-27T09:46:11;100933.38;;;12.07;56.83
41712;BME280;27399;51.516;13.670;2023-04-27T09:48:38;100925.19;;;12.29;57.80
41712;BME280;27399;51.516;13.670;2023-04-27T09:51:04;100923.50;;;12.19;59.29
41712;BME280;27399;51.516;13.670;2023-04-27T09:53:37;100927.81;;;12.37;59.24
41712;BME280;27399;51.516;13.670;2023-04-27T09:58:57;100931.50;;;12.17;60.04
41712;BME280;27399;51.516;13.670;2023-04-27T10:01:38;100926.25;;;12.03;58.31
41712;BME280;27399;51.516;13.670;2023-04-27T10:04:26;100937.00;;;11.89;58.40
41712;BME280;27399;51.516;13.670;2023-04-27T10:09:43;100935.22;;;11.88;60.85
41712;BME280;27399;51.516;13.670;2023-04-27T10:12:27;100940.63;;;11.82;60.90
41712;BME280;27399;51.516;13.670;2023-04-27T10:15:10;100927.28;;;11.74;63.40
41712;BME280;27399;51.516;13.670;2023-04-27T10:17:35;100906.88;;;11.59;62.61
41712;BME280;27399;51.516;13.670;2023-04-27T10:22:44;100929.00;;;11.86;60.20
41712;BME280;27399;51.516;13.670;2023-04-27T10:25:25;100928.16;;;11.81;58.46
41712;BME280;27399;51.516;13.670;2023-04-27T10:27:53;100922.81;;;11.81;58.73
41712;BME280;27399;51.516;13.670;2023-04-27T10:30:22;100926.31;;;11.89;58.51
41712;BME280;27399;51.516;13.670;2023-04-27T10:32:56;100928.97;;;11.91;58.02
41712;BME280;27399;51.516;13.670;2023-04-27T10:35:39;100938.78;;;11.90;59.30
41712;BME280;27399;51.516;13.670;2023-04-27T10:38:10;100927.22;;;11.85;59.48
41712;BME280;27399;51.516;13.670;2023-04-27T10:40:39;100930.81;;;11.84;61.12
41712;BME280;27399;51.516;13.670;2023-04-27T10:43:13;100932.50;;;12.01;60.56
41712;BME280;27399;51.516;13.670;2023-04-27T10:45:39;100921.06;;;11.71;60.84
41712;BME280;27399;51.516;13.670;2023-04-27T10:48:05;100939.69;;;11.89;60.89
41712;BME280;27399;51.516;13.670;2023-04-27T10:50:32;100919.25;;;11.76;62.14
41712;BME280;27399;51.516;13.670;2023-04-27T10:53:03;100922.81;;;11.78;62.36
41712;BME280;27399;51.516;13.670;2023-04-27T10:55:30;100936.28;;;11.59;59.97
41712;BME280;27399;51.516;13.670;2023-04-27T10:57:57;100938.00;;;11.73;62.12
41712;BME280;27399;51.516;13.670;2023-04-27T11:00:27;100941.59;;;11.67;62.24
41712;BME280;27399;51.516;13.670;2023-04-27T11:02:55;100945.16;;;11.66;62.77
41712;BME280;27399;51.516;13.670;2023-04-27T11:05:25;100940.72;;;11.63;63.26
41712;BME280;27399;51.516;13.670;2023-04-27T11:08:16;100936.28;;;11.55;63.09
41712;BME280;27399;51.516;13.670;2023-04-27T11:10:45;100938.94;;;11.59;66.36
41712;BME280;27399;51.516;13.670;2023-04-27T11:13:38;100936.28;;;11.59;66.24
41712;BME280;27399;51.516;13.670;2023-04-27T11:16:03;100930.94;;;11.56;66.14
41712;BME280;27399;51.516;13.670;2023-04-27T11:18:30;100934.44;;;11.71;67.21
41712;BME280;27399;51.516;13.670;2023-04-27T11:21:10;100928.19;;;11.72;62.91
41712;BME280;27399;51.516;13.670;2023-04-27T11:23:37;100945.09;;;11.77;63.43
41712;BME280;27399;51.516;13.670;2023-04-27T11:26:20;100930.88;;;11.72;63.81
41712;BME280;27399;51.516;13.670;2023-04-27T11:29:08;100939.69;;;11.85;61.74
41712;BME280;27399;51.516;13.670;2023-04-27T11:31:44;100935.22;;;11.91;61.47
41712;BME280;27399;51.516;13.670;2023-04-27T11:34:18;100942.34;;;11.86;61.51
41712;BME280;27399;51.516;13.670;2023-04-27T11:36:54;100940.59;;;11.90;63.16
41712;BME280;27399;51.516;13.670;2023-04-27T11:39:20;100933.47;;;11.86;61.22
41712;BME280;27399;51.516;13.670;2023-04-27T11:41:47;100936.09;;;11.93;61.05
41712;BME280;27399;51.516;13.670;2023-04-27T11:44:12;100926.31;;;11.86;59.72
41712;BME280;27399;51.516;13.670;2023-04-27T11:46:38;100937.84;;;11.96;58.48
41712;BME280;27399;51.516;13.670;2023-04-27T11:49:07;100940.59;;;11.84;57.65
41712;BME280;27399;51.516;13.670;2023-04-27T11:51:35;100938.75;;;12.01;58.37
41712;BME280;27399;51.516;13.670;2023-04-27T11:54:05;100946.75;;;12.01;59.21
41712;BME280;27399;51.516;13.670;2023-04-27T11:56:39;100948.56;;;11.93;56.25
41712;BME280;27399;51.516;13.670;2023-04-27T11:59:20;100950.34;;;11.96;57.61
41712;BME280;27399;51.516;13.670;2023-04-27T12:01:45;100944.03;;;12.12;57.30
41712;BME280;27399;51.516;13.670;2023-04-27T12:04:11;100944.94;;;12.11;57.78
41712;BME280;27399;51.516;13.670;2023-04-27T12:06:37;100943.94;;;12.24;57.68
41712;BME280;27399;51.516;13.670;2023-04-27T12:09:03;100947.63;;;12.06;55.02
41712;BME280;27399;51.516;13.670;2023-04-27T12:11:29;100947.47;;;12.30;56.01
41712;BME280;27399;51.516;13.670;2023-04-27T12:13:55;100943.03;;;12.27;53.87
41712;BME280;27399;51.516;13.670;2023-04-27T12:16:21;100933.22;;;12.28;54.24
41712;BME280;27399;51.516;13.670;2023-04-27T12:18:48;100940.31;;;12.32;52.01
41712;BME280;27399;51.516;13.670;2023-04-27T12:21:14;100951.91;;;12.31;52.04
41712;BME280;27399;51.516;13.670;2023-04-27T12:23:40;100952.78;;;12.34;52.13
41712;BME280;27399;51.516;13.670;2023-04-27T12:26:06;100952.91;;;12.17;54.37
41712;BME280;27399;51.516;13.670;2023-04-27T12:28:32;100947.41;;;12.39;54.86
41712;BME280;27399;51.516;13.670;2023-04-27T12:30:58;100950.22;;;12.19;52.65
41712;BME280;27399;51.516;13.670;2023-04-27T12:33:23;100945.63;;;12.36;54.27
41712;BME280;27399;51.516;13.670;2023-04-27T12:35:50;100931.41;;;12.30;53.77
41712;BME280;27399;51.516;13.670;2023-04-27T12:38:16;100952.63;;;12.54;56.23
41712;BME280;27399;51.516;13.670;2023-04-27T12:40:42;100938.34;;;12.57;54.22
41712;BME280;27399;51.516;13.670;2023-04-27T12:43:08;100919.53;;;12.66;54.97
41712;BME280;27399;51.516;13.670;2023-04-27T12:45:34;100957.81;;;12.76;51.66
41712;BME280;27399;51.516;13.670;2023-04-27T12:47:59;100938.94;;;12.90;52.72
41712;BME280;27399;51.516;13.670;2023-04-27T12:50:25;100938.84;;;13.01;51.72
41712;BME280;27399;51.516;13.670;2023-04-27T12:52:51;100927.16;;;13.08;53.30